createdAt,value
2018-10-05T00:02:13.831Z,78.23
2018-10-05T00:04:41.869Z,78.04
2018-10-05T00:07:09.921Z,78.93
2018-10-05T00:09:37.969Z,78.49
2018-10-05T00:12:06.010Z,77.94
2018-10-05T00:14:34.085Z,77.81
2018-10-05T00:17:02.154Z,77.85
2018-10-05T00:19:30.257Z,78.40
2018-10-05T00:21:58.313Z,78.12
2018-10-05T00:24:26.379Z,78.27
2018-10-05T00:26:54.427Z,78.21
2018-10-05T00:29:22.491Z,78.42
2018-10-05T00:31:50.548Z,78.40
2018-10-05T00:34:18.565Z,78.53
2018-10-05T00:36:46.706Z,78.44
2018-10-05T00:39:14.935Z,78.95
2018-10-05T00:41:42.986Z,78.78
2018-10-05T00:44:10.996Z,78.90
2018-10-05T00:46:39.018Z,78.51
2018-10-05T00:49:07.071Z,79.06
2018-10-05T00:51:35.090Z,78.83
2018-10-05T00:54:03.130Z,79.68
2018-10-05T00:56:31.205Z,79.53
2018-10-05T00:58:59.277Z,79.48
2018-10-05T01:01:27.338Z,79.74
2018-10-05T01:03:55.405Z,80.27
2018-10-05T01:06:23.451Z,79.56
2018-10-05T01:08:51.511Z,79.13
2018-10-05T01:11:19.564Z,80.27
2018-10-05T01:13:47.638Z,79.36
2018-10-05T01:16:15.658Z,79.18
2018-10-05T01:18:43.742Z,79.10
2018-10-05T01:21:11.791Z,78.46
2018-10-05T01:23:39.835Z,78.03
2018-10-05T01:26:07.890Z,77.99
2018-10-05T01:28:36.068Z,78.78
2018-10-05T01:31:04.099Z,78.77
2018-10-05T01:33:32.136Z,79.71
2018-10-05T01:36:00.165Z,79.42
2018-10-05T01:38:28.235Z,78.83
2018-10-05T01:40:56.281Z,78.42
2018-10-05T01:43:24.352Z,78.08
2018-10-05T01:45:52.374Z,78.43
2018-10-05T01:48:20.453Z,77.95
2018-10-05T01:50:48.464Z,78.00
2018-10-05T01:53:16.509Z,78.61
2018-10-05T01:55:44.517Z,78.41
2018-10-05T01:58:12.589Z,78.92
2018-10-05T02:00:40.638Z,77.72
2018-10-05T02:03:08.729Z,78.08
2018-10-05T02:05:36.815Z,78.19
2018-10-05T02:08:04.897Z,78.30
2018-10-05T02:10:32.930Z,79.11
2018-10-05T02:13:00.961Z,79.50
2018-10-05T02:15:29.026Z,79.45
2018-10-05T02:17:57.085Z,79.40
2018-10-05T02:20:25.215Z,78.30
2018-10-05T02:22:53.239Z,78.35
2018-10-05T02:25:21.319Z,78.01
2018-10-05T02:27:49.383Z,78.21
2018-10-05T02:30:17.445Z,78.50
2018-10-05T02:32:45.514Z,77.93
2018-10-05T02:35:13.550Z,78.43
2018-10-05T02:37:41.571Z,79.05
2018-10-05T02:40:09.604Z,78.21
2018-10-05T02:42:37.713Z,78.25
2018-10-05T02:45:05.725Z,77.77
2018-10-05T02:47:33.793Z,78.31
2018-10-05T02:50:01.850Z,78.37
2018-10-05T02:52:30.014Z,77.39
2018-10-05T02:54:58.049Z,77.25
2018-10-05T02:57:26.095Z,77.78
2018-10-05T02:59:54.180Z,78.31
2018-10-05T03:02:32.527Z,78.47
2018-10-05T03:05:00.574Z,79.50
2018-10-05T03:07:29.562Z,79.03
2018-10-05T03:09:58.188Z,79.62
2018-10-05T03:12:26.337Z,80.48
2018-10-05T03:14:54.405Z,80.92
2018-10-05T03:17:22.466Z,80.64
2018-10-05T03:19:50.614Z,81.45
2018-10-05T03:22:18.610Z,81.86
2018-10-05T03:24:46.710Z,80.62
2018-10-05T03:27:14.736Z,80.87
2018-10-05T03:29:43.050Z,80.65
2018-10-05T03:32:11.363Z,80.89
2018-10-05T03:34:39.461Z,81.08
2018-10-05T03:37:07.506Z,80.79
2018-10-05T03:39:35.542Z,80.79
2018-10-05T03:42:03.569Z,79.93
2018-10-05T03:44:31.613Z,80.37
2018-10-05T03:46:59.681Z,80.17
2018-10-05T03:49:27.766Z,79.75
2018-10-05T03:51:55.810Z,79.26
2018-10-05T03:54:24.741Z,79.96
2018-10-05T03:56:52.812Z,79.51
2018-10-05T03:59:21.095Z,79.21
2018-10-05T04:01:49.190Z,78.60
2018-10-05T04:04:17.234Z,78.04
2018-10-05T04:06:45.262Z,78.45
2018-10-05T04:09:13.293Z,78.40
2018-10-05T04:11:41.414Z,79.02
2018-10-05T04:14:09.450Z,78.41
2018-10-05T04:16:37.485Z,79.28
2018-10-05T04:19:05.585Z,79.19
2018-10-05T04:21:33.597Z,80.19
2018-10-05T04:24:01.698Z,80.21
2018-10-05T04:26:29.872Z,79.57
2018-10-05T04:28:57.942Z,79.68
2018-10-05T04:31:26.079Z,79.43
2018-10-05T04:33:54.106Z,79.11
2018-10-05T04:36:22.158Z,79.72
2018-10-05T04:38:50.195Z,79.44
2018-10-05T04:41:18.280Z,78.83
2018-10-05T04:43:46.238Z,79.42
2018-10-05T04:46:14.284Z,79.72
2018-10-05T04:48:42.359Z,79.66
2018-10-05T04:51:10.443Z,79.87
2018-10-05T04:53:38.479Z,80.87
2018-10-05T04:56:06.573Z,81.22
2018-10-05T04:58:34.621Z,82.02
2018-10-05T05:01:02.649Z,81.44
2018-10-05T05:03:30.726Z,82.17
2018-10-05T05:05:58.779Z,82.07
2018-10-05T05:08:26.885Z,82.49
2018-10-05T05:10:54.934Z,82.22
2018-10-05T05:13:23.034Z,82.12
2018-10-05T05:15:51.078Z,83.17
2018-10-05T05:18:19.111Z,84.18
2018-10-05T05:20:47.192Z,83.37
2018-10-05T05:23:15.233Z,84.18
2018-10-05T05:25:43.342Z,84.06
2018-10-05T05:28:11.365Z,84.50
2018-10-05T05:30:39.462Z,85.83
2018-10-05T05:33:07.488Z,86.57
2018-10-05T05:35:35.535Z,86.64
2018-10-05T05:38:03.570Z,86.39
2018-10-05T05:40:31.773Z,87.18
2018-10-05T05:42:59.809Z,87.27
2018-10-05T05:45:27.877Z,86.60
2018-10-05T05:47:55.953Z,86.19
2018-10-05T05:50:23.997Z,87.08
2018-10-05T05:52:52.281Z,86.71
2018-10-05T05:55:20.309Z,86.95
2018-10-05T05:57:48.425Z,87.17
2018-10-05T06:00:16.570Z,86.56
2018-10-05T06:02:44.640Z,85.44
2018-10-05T06:05:12.713Z,83.05
2018-10-05T06:07:40.761Z,81.17
2018-10-05T06:10:08.810Z,82.19
2018-10-05T06:12:36.846Z,82.76
2018-10-05T06:15:05.166Z,81.56
2018-10-05T06:17:33.194Z,76.09
2018-10-05T06:20:01.345Z,70.89
2018-10-05T06:22:30.595Z,63.51
2018-10-05T06:24:58.433Z,59.81
2018-10-05T06:27:26.529Z,55.74
2018-10-05T06:29:54.499Z,52.13
2018-10-05T06:32:22.611Z,50.31
2018-10-05T06:34:50.656Z,47.18
2018-10-05T06:37:18.722Z,46.31
2018-10-05T06:39:47.666Z,45.21
2018-10-05T06:42:15.790Z,43.46
2018-10-05T06:44:43.757Z,41.65
2018-10-05T06:47:11.830Z,41.13
2018-10-05T06:49:40.049Z,41.00
2018-10-05T06:52:08.101Z,40.38
2018-10-05T06:54:36.196Z,39.50
2018-10-05T06:57:04.336Z,39.51
2018-10-05T06:59:32.414Z,39.55
2018-10-05T07:02:01.607Z,38.94
2018-10-05T07:04:29.546Z,39.27
2018-10-05T07:06:57.613Z,39.95
2018-10-05T07:09:26.755Z,40.95
2018-10-05T07:11:54.850Z,40.94
2018-10-05T07:14:22.911Z,40.91
2018-10-05T07:16:51.012Z,40.54
2018-10-05T07:19:19.054Z,41.09
2018-10-05T07:21:47.160Z,40.15
2018-10-05T07:24:15.377Z,39.48
2018-10-05T07:26:43.706Z,38.18
2018-10-05T07:29:11.762Z,39.60
2018-10-05T07:31:39.838Z,37.81
2018-10-05T07:34:08.939Z,38.15
2018-10-05T07:36:36.990Z,38.32
2018-10-05T07:39:07.107Z,38.45
2018-10-05T07:41:35.166Z,37.85
2018-10-05T07:44:03.202Z,35.59
2018-10-05T07:46:31.321Z,35.80
2018-10-05T07:48:59.350Z,35.89
2018-10-05T07:51:27.412Z,34.43
2018-10-05T07:53:55.446Z,34.32
2018-10-05T07:56:23.514Z,33.46
2018-10-05T07:58:51.575Z,33.95
2018-10-05T08:01:19.602Z,34.36
2018-10-05T08:03:47.710Z,34.00
2018-10-05T08:06:15.921Z,35.37
2018-10-05T08:08:44.073Z,35.68
2018-10-05T08:11:12.205Z,36.65
2018-10-05T08:13:40.280Z,36.25
2018-10-05T08:16:08.398Z,35.30
2018-10-05T08:18:36.529Z,35.55
2018-10-05T08:21:04.604Z,35.03
2018-10-05T08:23:32.622Z,35.37
2018-10-05T08:26:00.833Z,34.36
2018-10-05T08:28:28.893Z,31.67
2018-10-05T08:30:56.979Z,31.79
2018-10-05T08:33:25.022Z,30.74
2018-10-05T08:35:53.166Z,31.93
2018-10-05T08:38:21.250Z,31.06
2018-10-05T08:40:49.269Z,31.63
2018-10-05T08:43:17.291Z,31.58
2018-10-05T08:45:45.338Z,30.67
2018-10-05T08:48:13.369Z,31.38
2018-10-05T08:50:41.430Z,30.00
2018-10-05T08:53:09.489Z,30.68
2018-10-05T08:55:37.557Z,30.57
2018-10-05T08:58:05.626Z,30.54
2018-10-05T09:00:33.907Z,30.76
2018-10-05T09:03:01.895Z,29.03
2018-10-05T09:05:30.016Z,29.59
2018-10-05T09:07:58.114Z,31.46
2018-10-05T09:10:26.253Z,29.18
2018-10-05T09:12:54.323Z,29.58
2018-10-05T09:15:22.360Z,29.37
2018-10-05T09:17:50.475Z,30.17
2018-10-05T09:20:18.555Z,30.17
2018-10-05T09:22:46.697Z,31.87
2018-10-05T09:25:14.778Z,30.06
2018-10-05T09:27:42.928Z,30.60
2018-10-05T09:30:12.172Z,32.50
2018-10-05T09:32:40.270Z,31.37
2018-10-05T09:35:08.304Z,33.47
2018-10-05T09:37:36.720Z,30.77
2018-10-05T09:40:04.658Z,30.64
2018-10-05T09:42:32.744Z,31.76
2018-10-05T09:45:00.903Z,32.90
2018-10-05T09:47:28.887Z,32.59
2018-10-05T09:49:57.068Z,33.58
2018-10-05T09:52:25.544Z,32.45
2018-10-05T09:54:53.509Z,32.60
2018-10-05T09:57:21.571Z,35.62
2018-10-05T09:59:49.705Z,37.08
2018-10-05T10:02:22.903Z,36.65
2018-10-05T10:04:51.245Z,35.51
2018-10-05T10:07:21.312Z,37.21
2018-10-05T10:09:49.416Z,38.45
2018-10-05T10:12:17.557Z,42.44
2018-10-05T10:14:45.600Z,43.50
2018-10-05T10:17:13.671Z,41.43
2018-10-05T10:19:41.779Z,43.52
2018-10-05T10:22:09.829Z,44.53
2018-10-05T10:24:37.878Z,44.13
2018-10-05T10:27:05.943Z,45.93
2018-10-05T10:29:34.194Z,45.11
2018-10-05T10:32:02.215Z,46.00
2018-10-05T10:34:30.293Z,43.63
2018-10-05T10:36:58.330Z,46.29
2018-10-05T10:39:26.477Z,45.80
2018-10-05T10:41:54.559Z,46.02
2018-10-05T10:44:22.787Z,44.50
2018-10-05T10:46:50.833Z,46.97
2018-10-05T10:49:18.876Z,45.39
2018-10-05T10:51:46.986Z,44.83
2018-10-05T10:54:15.041Z,45.68
2018-10-05T10:56:43.210Z,47.08
2018-10-05T10:59:11.394Z,46.22
2018-10-05T11:01:39.615Z,45.89
2018-10-05T11:04:07.886Z,48.45
2018-10-05T11:06:35.910Z,50.09
2018-10-05T11:09:04.829Z,48.36
2018-10-05T11:11:32.911Z,45.12
2018-10-05T11:14:01.054Z,45.69
2018-10-05T11:16:29.195Z,46.86
2018-10-05T11:18:57.263Z,47.09
2018-10-05T11:21:26.270Z,48.95
2018-10-05T11:23:54.317Z,48.67
2018-10-05T11:26:22.339Z,50.12
2018-10-05T11:28:50.364Z,49.49
2018-10-05T11:31:18.595Z,49.38
2018-10-05T11:33:46.650Z,49.07
2018-10-05T11:36:14.779Z,50.02
2018-10-05T11:41:10.148Z,46.24
2018-10-05T11:43:38.259Z,48.83
2018-10-05T11:46:06.313Z,46.03
2018-10-05T11:48:34.389Z,45.83
2018-10-05T11:51:02.493Z,45.00
2018-10-05T11:53:30.570Z,47.26
2018-10-05T11:55:58.772Z,46.00
2018-10-05T11:58:26.958Z,46.70
2018-10-05T12:00:55.018Z,48.99
2018-10-05T12:03:23.176Z,46.51
2018-10-05T12:05:51.142Z,47.91
2018-10-05T12:08:19.330Z,47.40
2018-10-05T12:10:47.408Z,44.96
2018-10-05T12:13:15.457Z,43.23
2018-10-05T12:15:43.590Z,44.66
2018-10-05T12:18:11.817Z,46.87
2018-10-05T12:20:39.925Z,45.16
2018-10-05T12:23:08.077Z,45.13
2018-10-05T12:25:36.184Z,45.85
2018-10-05T12:28:04.230Z,45.99
2018-10-05T12:30:32.297Z,44.10
2018-10-05T12:33:00.377Z,44.43
2018-10-05T12:35:28.434Z,44.46
2018-10-05T12:37:56.499Z,44.58
2018-10-05T12:40:24.550Z,43.89
2018-10-05T12:42:52.654Z,44.04
2018-10-05T12:45:20.718Z,43.25
2018-10-05T12:47:49.819Z,42.86
2018-10-05T12:50:17.994Z,43.85
2018-10-05T12:52:46.048Z,43.91
2018-10-05T12:55:14.094Z,43.01
2018-10-05T12:57:42.158Z,43.18
2018-10-05T13:00:10.198Z,44.09
2018-10-05T13:02:38.297Z,43.33
2018-10-05T13:05:06.442Z,43.98
2018-10-05T13:07:34.539Z,42.68
2018-10-05T13:10:02.644Z,42.58
2018-10-05T13:12:30.718Z,42.41
2018-10-05T13:14:58.913Z,43.14
2018-10-05T13:17:27.010Z,43.27
2018-10-05T13:19:55.053Z,43.06
2018-10-05T13:22:23.266Z,42.61
2018-10-05T13:24:51.608Z,42.92
2018-10-05T13:27:19.631Z,42.71
2018-10-05T13:29:47.892Z,42.93
2018-10-05T13:32:15.970Z,42.28
2018-10-05T13:34:44.091Z,42.31
2018-10-05T13:37:12.210Z,42.68
2018-10-05T13:39:40.201Z,42.54
2018-10-05T13:42:08.386Z,43.06
2018-10-05T13:44:36.452Z,43.12
2018-10-05T13:47:04.677Z,41.54
2018-10-05T13:49:32.786Z,43.47
2018-10-05T13:52:00.914Z,42.00
2018-10-05T13:54:29.026Z,40.71
2018-10-05T13:56:57.077Z,42.32
2018-10-05T13:59:25.103Z,42.45
2018-10-05T14:01:53.229Z,42.22
2018-10-05T14:04:21.306Z,43.27
2018-10-05T14:06:49.366Z,41.06
2018-10-05T14:09:17.427Z,43.79
2018-10-05T14:11:45.572Z,43.43
2018-10-05T14:14:13.629Z,41.30
2018-10-05T14:16:41.750Z,44.14
2018-10-05T14:19:10.877Z,41.19
2018-10-05T14:21:38.944Z,41.88
2018-10-05T14:24:06.998Z,42.41
2018-10-05T14:26:35.014Z,41.18
2018-10-05T14:29:03.042Z,41.80
2018-10-05T14:31:31.189Z,41.19
2018-10-05T14:33:59.293Z,42.18
2018-10-05T14:36:27.328Z,42.30
2018-10-05T14:38:55.400Z,42.83
2018-10-05T14:41:23.509Z,43.91
2018-10-05T14:43:51.571Z,44.14
2018-10-05T14:46:19.646Z,43.15
2018-10-05T14:48:47.760Z,42.49
2018-10-05T14:51:15.798Z,42.35
2018-10-05T14:53:43.830Z,43.85
2018-10-05T14:56:11.982Z,41.79
2018-10-05T14:58:40.071Z,44.22
2018-10-05T15:01:08.157Z,42.42
2018-10-05T15:03:36.225Z,42.06
2018-10-05T15:06:04.283Z,42.89
2018-10-05T15:08:32.326Z,43.23
2018-10-05T15:11:00.413Z,42.21
2018-10-05T15:13:28.475Z,41.69
2018-10-05T15:15:56.545Z,43.70
2018-10-05T15:18:24.579Z,42.21
2018-10-05T15:20:52.866Z,42.89
2018-10-05T15:23:21.093Z,42.59
2018-10-05T15:25:49.252Z,42.62
2018-10-05T15:28:17.380Z,43.78
2018-10-05T15:30:45.426Z,43.03
2018-10-05T15:33:13.503Z,44.31
2018-10-05T15:35:41.557Z,44.81
2018-10-05T15:38:09.613Z,43.70
2018-10-05T15:40:37.663Z,43.49
2018-10-05T15:43:05.761Z,43.32
2018-10-05T15:45:33.857Z,45.66
2018-10-05T15:48:01.953Z,43.72
2018-10-05T15:50:30.014Z,45.76
2018-10-05T15:52:58.054Z,44.13
2018-10-05T15:55:26.089Z,45.01
2018-10-05T15:57:54.149Z,45.39
2018-10-05T16:00:22.193Z,45.78
2018-10-05T16:02:50.249Z,46.64
2018-10-05T16:05:18.369Z,46.64
2018-10-05T16:07:46.382Z,46.21
2018-10-05T16:10:14.423Z,47.85
2018-10-05T16:12:42.519Z,46.94
2018-10-05T16:15:10.590Z,48.04
2018-10-05T16:17:38.614Z,47.82
2018-10-05T16:20:06.709Z,47.81
2018-10-05T16:22:34.811Z,47.89
2018-10-05T16:25:02.833Z,47.76
2018-10-05T16:27:30.946Z,47.15
2018-10-05T16:29:58.978Z,47.58
2018-10-05T16:32:27.051Z,48.60
2018-10-05T16:34:55.069Z,48.99
2018-10-05T16:37:23.192Z,48.74
2018-10-05T16:39:51.262Z,49.46
2018-10-05T16:42:19.332Z,49.25
2018-10-05T16:44:47.382Z,50.35
2018-10-05T16:47:15.519Z,50.61
2018-10-05T16:49:43.668Z,50.30
2018-10-05T16:52:11.722Z,49.99
2018-10-05T16:54:39.802Z,50.80
2018-10-05T16:57:07.875Z,51.02
2018-10-05T16:59:36.011Z,51.53
2018-10-05T17:02:04.325Z,51.91
2018-10-05T17:04:33.530Z,51.80
2018-10-05T17:07:01.683Z,51.93
2018-10-05T17:09:29.785Z,51.98
2018-10-05T17:11:57.827Z,52.94
2018-10-05T17:14:26.957Z,52.25
2018-10-05T17:16:54.994Z,52.58
2018-10-05T17:19:23.102Z,53.79
2018-10-05T17:21:51.141Z,53.15
2018-10-05T17:24:19.205Z,54.28
2018-10-05T17:26:47.383Z,54.08
2018-10-05T17:29:15.523Z,54.74
2018-10-05T17:31:43.590Z,55.17
2018-10-05T17:34:11.781Z,54.20
2018-10-05T17:36:39.857Z,55.08
2018-10-05T17:39:09.130Z,54.49
2018-10-05T17:41:37.206Z,55.34
2018-10-05T17:44:05.272Z,54.54
2018-10-05T17:46:33.348Z,54.92
2018-10-05T17:49:01.466Z,55.21
2018-10-05T17:51:29.570Z,55.61
2018-10-05T17:53:57.686Z,56.51
2018-10-05T17:56:25.810Z,55.56
2018-10-05T17:58:54.042Z,56.34
2018-10-05T18:01:22.178Z,56.46
2018-10-05T18:03:50.265Z,56.39
2018-10-05T18:06:18.309Z,56.38
2018-10-05T18:08:46.378Z,55.86
2018-10-05T18:11:14.568Z,56.16
2018-10-05T18:13:42.670Z,57.21
2018-10-05T18:16:10.742Z,56.75
2018-10-05T18:18:38.810Z,57.56
2018-10-05T18:21:06.852Z,56.99
2018-10-05T18:23:34.979Z,58.39
2018-10-05T18:26:03.171Z,59.01
2018-10-05T18:28:31.196Z,58.45
2018-10-05T18:30:59.373Z,59.01
2018-10-05T18:33:27.529Z,59.55
2018-10-05T18:35:55.609Z,59.31
2018-10-05T18:38:24.351Z,59.39
2018-10-05T18:40:52.454Z,59.97
2018-10-05T18:43:20.549Z,61.28
2018-10-05T18:45:48.752Z,60.60
2018-10-05T18:48:16.870Z,60.80
2018-10-05T18:50:44.982Z,60.86
2018-10-05T18:53:13.018Z,60.86
2018-10-05T18:55:41.076Z,61.40
2018-10-05T18:58:09.117Z,61.14
2018-10-05T19:00:37.274Z,60.76
2018-10-05T19:03:05.373Z,62.05
2018-10-05T19:05:33.433Z,62.20
2018-10-05T19:08:01.483Z,62.63
2018-10-05T19:10:29.515Z,61.82
2018-10-05T19:12:57.649Z,61.96
2018-10-05T19:15:25.689Z,62.28
2018-10-05T19:17:53.742Z,63.14
2018-10-05T19:20:21.794Z,62.39
2018-10-05T19:22:50.010Z,62.76
2018-10-05T19:25:18.214Z,63.64
2018-10-05T19:27:46.296Z,63.09
2018-10-05T19:30:14.347Z,63.58
2018-10-05T19:32:42.413Z,64.05
2018-10-05T19:35:10.488Z,63.57
2018-10-05T19:37:38.800Z,64.64
2018-10-05T19:40:07.031Z,64.37
2018-10-05T19:42:36.102Z,64.05
2018-10-05T19:45:04.137Z,64.33
2018-10-05T19:48:35.550Z,65.12
2018-10-05T19:51:03.631Z,65.93
2018-10-05T19:53:31.757Z,65.68
2018-10-05T19:55:59.731Z,65.99
2018-10-05T19:58:27.761Z,65.18
2018-10-05T20:00:55.793Z,65.57
2018-10-05T20:03:23.873Z,65.57
2018-10-05T20:05:51.938Z,64.53
2018-10-05T20:08:20.056Z,65.74
2018-10-05T20:10:48.179Z,65.98
2018-10-05T20:13:16.205Z,66.55
2018-10-05T20:15:44.270Z,65.98
2018-10-05T20:18:12.409Z,66.47
2018-10-05T20:20:40.378Z,66.28
2018-10-05T20:23:08.408Z,66.86
2018-10-05T20:25:36.506Z,67.60
2018-10-05T20:28:04.538Z,67.86
2018-10-05T20:30:32.564Z,67.23
2018-10-05T20:33:00.722Z,67.50
2018-10-05T20:35:28.770Z,67.68
2018-10-05T20:37:56.801Z,68.36
2018-10-05T20:40:24.842Z,68.78
2018-10-05T20:42:52.873Z,68.87
2018-10-05T20:45:20.946Z,69.23
2018-10-05T20:47:50.065Z,69.59
2018-10-05T20:50:18.158Z,68.86
2018-10-05T20:52:53.156Z,68.44
2018-10-05T20:55:21.295Z,68.53
2018-10-05T20:57:49.347Z,68.62
2018-10-05T21:00:17.403Z,68.95
2018-10-05T21:02:45.493Z,68.10
2018-10-05T21:05:13.538Z,68.43
2018-10-05T21:07:42.573Z,68.45
2018-10-05T21:10:10.641Z,68.60
2018-10-05T21:12:38.736Z,69.23
2018-10-05T21:15:06.835Z,69.38
2018-10-05T21:17:35.933Z,68.97
2018-10-05T21:20:04.188Z,69.72
2018-10-05T21:22:32.233Z,69.11
2018-10-05T21:25:00.315Z,69.76
2018-10-05T21:27:28.384Z,69.42
2018-10-05T21:29:56.445Z,69.63
2018-10-05T21:32:24.465Z,71.18
2018-10-05T21:34:52.497Z,71.32
2018-10-05T21:37:20.575Z,71.50
2018-10-05T21:39:48.609Z,71.91
2018-10-05T21:42:16.681Z,71.69
2018-10-05T21:44:44.711Z,72.08
2018-10-05T21:47:12.737Z,71.85
2018-10-05T21:49:40.791Z,71.07
2018-10-05T21:52:09.994Z,72.61
2018-10-05T21:54:38.062Z,72.09
2018-10-05T21:57:06.283Z,72.91
2018-10-05T21:59:34.462Z,71.64
2018-10-05T22:02:02.549Z,72.67
2018-10-05T22:04:30.581Z,72.19
2018-10-05T22:06:58.650Z,72.34
2018-10-05T22:09:26.679Z,71.82
2018-10-05T22:11:54.763Z,72.59
2018-10-05T22:14:22.907Z,72.25
2018-10-05T22:16:51.161Z,72.20
2018-10-05T22:19:19.266Z,73.03
2018-10-05T22:21:47.306Z,72.66
2018-10-05T22:24:15.374Z,72.08
2018-10-05T22:26:43.445Z,71.89
2018-10-05T22:29:11.510Z,71.68
2018-10-05T22:31:39.626Z,71.78
2018-10-05T22:34:07.857Z,72.58
2018-10-05T22:36:35.933Z,72.90
2018-10-05T22:39:04.979Z,72.10
2018-10-05T22:41:33.014Z,72.66
2018-10-05T22:44:01.049Z,72.93
2018-10-05T22:46:29.070Z,72.76
2018-10-05T22:48:57.245Z,73.00
2018-10-05T22:51:25.419Z,72.49
2018-10-05T22:53:53.463Z,72.37
2018-10-05T22:56:21.506Z,72.71
2018-10-05T22:58:49.700Z,73.75
2018-10-05T23:01:17.897Z,74.23
2018-10-05T23:03:46.069Z,75.70
2018-10-05T23:06:14.228Z,76.08
2018-10-05T23:08:42.338Z,75.40
2018-10-05T23:11:10.486Z,75.51
2018-10-05T23:13:38.540Z,75.68
2018-10-05T23:16:06.947Z,75.72
2018-10-05T23:18:35.143Z,76.36
2018-10-05T23:21:03.343Z,75.45
2018-10-05T23:23:31.570Z,75.59
2018-10-05T23:26:00.631Z,75.06
2018-10-05T23:28:28.722Z,74.59
2018-10-05T23:30:56.762Z,75.27
2018-10-05T23:33:24.950Z,74.97
2018-10-05T23:35:53.078Z,75.48
2018-10-05T23:38:21.159Z,75.56
2018-10-05T23:40:49.190Z,74.73
2018-10-05T23:43:17.241Z,74.48
2018-10-05T23:45:45.365Z,74.87
2018-10-05T23:48:13.444Z,74.79
2018-10-05T23:50:41.493Z,75.17
2018-10-05T23:53:09.597Z,75.14
2018-10-05T23:55:37.717Z,74.82
2018-10-05T23:58:06.109Z,75.19
